Time;durP1;ratioP1;P1;durP2;ratioP2;P2;SDS_P1;SDS_P2;PMS_P1;PMS_P2;Temp;Humidity;BMP_temperature;BMP_pressure;BME280_temperature;BME280_humidity;BME280_pressure;Samples;Min_cycle;Max_cycle;Signal;HPM_P1;HPM_P2
2022/11/25 00:00:25;;;;;;;17.75;5.50;;;7.20;99.90;;;;;;5051348;28;20631;-47
2022/11/25 00:02:51;;;;;;;11.68;4.32;;;7.20;99.90;;;;;;5051478;28;20174;-48
2022/11/25 00:05:16;;;;;;;11.32;4.50;;;7.20;99.90;;;;;;5051765;28;20158;-46
2022/11/25 00:07:42;;;;;;;11.57;4.65;;;7.20;99.90;;;;;;5051675;28;20174;-47
2022/11/25 00:10:08;;;;;;;16.15;5.32;;;7.20;99.90;;;;;;5051351;28;20522;-47
2022/11/25 00:12:33;;;;;;;19.00;5.63;;;7.10;99.90;;;;;;5051409;28;20210;-48
2022/11/25 00:14:59;;;;;;;17.98;5.50;;;7.10;99.90;;;;;;5051528;28;20206;-46
2022/11/25 00:17:24;;;;;;;15.23;5.10;;;7.10;99.90;;;;;;5051321;28;20543;-47
2022/11/25 00:19:50;;;;;;;21.83;4.82;;;7.10;99.90;;;;;;5051373;28;20621;-46
2022/11/25 00:22:16;;;;;;;15.02;4.78;;;7.20;99.90;;;;;;5051589;28;20206;-47
2022/11/25 00:24:41;;;;;;;19.52;6.28;;;7.20;99.90;;;;;;5051234;28;20167;-47
2022/11/25 00:27:07;;;;;;;18.98;6.25;;;7.10;99.90;;;;;;5033536;28;20269;-47
2022/11/25 00:29:33;;;;;;;24.45;6.80;;;7.10;99.90;;;;;;5051253;28;20166;-47
2022/11/25 00:31:59;;;;;;;21.95;5.30;;;7.20;99.90;;;;;;5051253;28;20182;-47
2022/11/25 00:34:25;;;;;;;21.35;5.50;;;7.10;99.90;;;;;;5051265;28;20214;-46
2022/11/25 00:36:52;;;;;;;17.55;4.95;;;7.20;99.90;;;;;;5051454;28;20173;-46
2022/11/25 00:39:18;;;;;;;17.02;5.28;;;7.20;99.90;;;;;;5051468;28;20213;-47
2022/11/25 00:44:35;;;;;;;17.42;4.72;;;7.20;99.90;;;;;;5051135;28;20178;-46
2022/11/25 00:47:10;;;;;;;14.18;5.13;;;7.10;99.90;;;;;;5051280;28;20175;-47
2022/11/25 00:49:38;;;;;;;12.32;3.90;;;7.10;99.90;;;;;;5054688;28;20170;-47
2022/11/25 00:52:04;;;;;;;19.45;5.97;;;7.10;99.90;;;;;;5036521;28;20205;-48
2022/11/25 00:54:30;;;;;;;16.30;5.18;;;7.10;99.90;;;;;;5054633;28;20234;-47
2022/11/25 00:56:56;;;;;;;16.45;5.25;;;7.20;99.90;;;;;;5054836;28;20241;-47
2022/11/25 00:59:22;;;;;;;18.38;6.15;;;7.10;99.90;;;;;;5054376;28;20167;-47
2022/11/25 01:01:48;;;;;;;11.48;4.63;;;7.10;99.90;;;;;;5054182;28;20182;-47
2022/11/25 01:04:14;;;;;;;17.17;6.38;;;7.10;99.90;;;;;;5054985;28;20194;-47
2022/11/25 01:06:40;;;;;;;18.60;5.25;;;7.20;99.90;;;;;;5054279;28;20293;-48
2022/11/25 01:09:06;;;;;;;15.25;4.80;;;7.20;99.90;;;;;;5054387;28;20202;-47
2022/11/25 01:11:32;;;;;;;23.65;6.78;;;7.20;99.90;;;;;;5054198;28;20171;-46
2022/11/25 01:13:58;;;;;;;17.08;5.15;;;7.20;99.90;;;;;;5054248;28;20669;-46
2022/11/25 01:16:24;;;;;;;15.45;5.47;;;7.10;99.90;;;;;;5054314;28;20170;-46
2022/11/25 01:18:50;;;;;;;36.85;10.27;;;7.20;99.90;;;;;;5054459;28;20244;-47
2022/11/25 01:21:19;;;;;;;18.33;5.68;;;7.20;99.90;;;;;;5054708;28;20171;-47
2022/11/25 01:23:45;;;;;;;19.92;6.60;;;7.30;99.90;;;;;;5054768;28;20171;-47
2022/11/25 01:26:14;;;;;;;28.25;7.50;;;7.30;99.90;;;;;;5054067;28;20769;-46
2022/11/25 01:28:39;;;;;;;21.65;5.88;;;7.30;99.90;;;;;;5054002;28;20175;-46
2022/11/25 01:31:13;;;;;;;12.77;5.28;;;7.40;99.90;;;;;;5054284;28;20171;-48
2022/11/25 01:33:39;;;;;;;22.52;5.45;;;7.30;99.90;;;;;;5053912;28;20248;-47
2022/11/25 01:36:12;;;;;;;15.75;4.05;;;7.40;99.90;;;;;;5053839;28;20171;-47
2022/11/25 01:38:39;;;;;;;36.15;8.60;;;7.40;99.90;;;;;;5053794;28;20174;-48
2022/11/25 01:41:06;;;;;;;26.35;6.63;;;7.40;99.90;;;;;;5054043;28;20171;-47
2022/11/25 01:43:32;;;;;;;38.45;12.27;;;7.40;99.90;;;;;;5053821;28;20293;-49
2022/11/25 01:46:08;;;;;;;19.95;6.47;;;7.50;99.90;;;;;;5053737;28;20257;-47
2022/11/25 01:49:02;;;;;;;35.25;9.68;;;7.50;99.90;;;;;;5053628;28;20158;-47
2022/11/25 01:51:45;;;;;;;44.50;14.48;;;7.50;99.90;;;;;;5050703;28;20178;-47
2022/11/25 01:54:14;;;;;;;20.17;5.97;;;7.50;99.90;;;;;;5053433;28;20202;-47
2022/11/25 01:56:51;;;;;;;16.15;4.65;;;7.50;99.90;;;;;;5053440;28;20166;-47
2022/11/25 01:59:17;;;;;;;19.00;6.10;;;7.60;99.90;;;;;;5053073;28;20617;-47
2022/11/25 02:01:43;;;;;;;19.88;5.00;;;7.50;99.90;;;;;;5053906;28;20186;-47
2022/11/25 02:04:11;;;;;;;19.75;4.82;;;7.50;99.90;;;;;;5053673;28;20177;-47
2022/11/25 02:06:56;;;;;;;20.73;5.80;;;7.60;99.90;;;;;;5053423;28;20239;-48
2022/11/25 02:09:22;;;;;;;22.17;6.70;;;7.60;99.90;;;;;;5053202;28;20174;-47
2022/11/25 02:11:50;;;;;;;18.85;5.38;;;7.70;99.90;;;;;;5053195;28;20661;-46
2022/11/25 02:14:17;;;;;;;19.42;5.57;;;7.70;99.90;;;;;;5053486;28;20198;-47
2022/11/25 02:16:43;;;;;;;19.92;6.82;;;7.70;99.90;;;;;;5053530;28;20166;-46
2022/11/25 02:19:24;;;;;;;22.20;5.93;;;7.70;99.90;;;;;;5053042;28;20167;-47
2022/11/25 02:21:58;;;;;;;10.73;3.75;;;7.70;99.90;;;;;;5053050;28;20159;-47
2022/11/25 02:24:53;;;;;;;16.63;4.43;;;7.70;99.90;;;;;;5053222;28;20174;-47
2022/11/25 02:27:19;;;;;;;10.55;3.35;;;7.60;99.90;;;;;;5050468;28;20240;-46
2022/11/25 02:29:46;;;;;;;12.43;3.10;;;7.70;99.90;;;;;;5053077;28;20696;-47
2022/11/25 02:32:11;;;;;;;10.77;3.45;;;7.60;99.90;;;;;;5052576;28;20258;-47
2022/11/25 02:34:46;;;;;;;7.22;2.72;;;7.70;99.90;;;;;;5052716;28;20284;-47
2022/11/25 02:37:13;;;;;;;16.42;4.55;;;7.70;99.90;;;;;;5053013;28;20601;-49
2022/11/25 02:39:39;;;;;;;11.05;3.05;;;7.70;99.90;;;;;;5052740;28;20178;-48
2022/11/25 02:42:05;;;;;;;15.65;4.45;;;7.70;99.90;;;;;;5052610;28;20518;-48
2022/11/25 02:44:31;;;;;;;12.27;3.30;;;7.80;99.90;;;;;;5052579;28;20178;-47
2022/11/25 02:46:57;;;;;;;17.77;3.90;;;7.70;99.90;;;;;;5052566;28;20270;-48
2022/11/25 02:49:22;;;;;;;6.07;2.88;;;7.80;99.90;;;;;;5052457;28;20253;-47
2022/11/25 02:51:48;;;;;;;14.75;3.10;;;7.90;99.90;;;;;;5052472;28;20197;-54
2022/11/25 02:54:15;;;;;;;15.98;3.70;;;8.00;99.90;;;;;;5052715;28;20195;-52
2022/11/25 02:56:41;;;;;;;18.73;3.67;;;8.10;99.90;;;;;;5052454;28;20185;-53
2022/11/25 02:59:07;;;;;;;15.57;3.20;;;8.10;99.90;;;;;;5052176;28;20862;-54
2022/11/25 03:01:34;;;;;;;12.27;3.38;;;8.10;99.90;;;;;;5051818;28;20286;-54
2022/11/25 03:04:00;;;;;;;14.88;3.65;;;8.10;99.90;;;;;;5052542;28;20186;-54
2022/11/25 03:06:27;;;;;;;9.95;4.15;;;8.10;99.90;;;;;;5052138;28;20170;-54
2022/11/25 03:08:52;;;;;;;11.95;3.88;;;8.00;99.90;;;;;;5052118;28;20167;-53
2022/11/25 03:11:18;;;;;;;14.18;4.10;;;8.00;99.90;;;;;;5051816;28;20189;-54
2022/11/25 03:13:43;;;;;;;16.15;3.53;;;7.90;99.90;;;;;;5052374;28;20288;-55
2022/11/25 03:16:09;;;;;;;17.35;4.38;;;8.00;99.90;;;;;;5052114;28;20531;-53
2022/11/25 03:18:35;;;;;;;10.95;3.78;;;7.90;99.90;;;;;;5052055;28;20531;-54
2022/11/25 03:21:00;;;;;;;12.75;4.32;;;7.90;99.90;;;;;;5051967;28;20179;-53
2022/11/25 03:23:26;;;;;;;10.15;3.55;;;7.90;99.90;;;;;;5052119;28;20178;-54
2022/11/25 03:25:52;;;;;;;12.75;3.97;;;7.90;99.90;;;;;;5051890;28;20166;-53
2022/11/25 03:28:17;;;;;;;9.50;3.83;;;7.90;99.90;;;;;;5052076;28;20202;-54
2022/11/25 03:30:43;;;;;;;14.60;4.00;;;8.00;99.90;;;;;;5052207;28;20170;-49
2022/11/25 03:33:09;;;;;;;11.00;3.38;;;8.00;99.90;;;;;;5051843;28;20522;-50
2022/11/25 03:35:34;;;;;;;13.70;3.20;;;8.00;99.90;;;;;;5051724;28;20617;-47
2022/11/25 03:38:00;;;;;;;13.18;3.60;;;8.10;99.90;;;;;;5051789;28;20217;-47
2022/11/25 03:40:25;;;;;;;9.68;3.58;;;8.10;99.90;;;;;;5051723;28;20201;-47
2022/11/25 03:42:51;;;;;;;11.55;3.03;;;8.10;99.90;;;;;;5051688;28;20169;-48
2022/11/25 03:45:17;;;;;;;12.95;2.97;;;8.20;99.90;;;;;;5052003;28;20187;-47
2022/11/25 03:47:43;;;;;;;12.52;2.65;;;8.30;99.90;;;;;;5052072;28;20198;-46
2022/11/25 03:50:11;;;;;;;8.48;2.72;;;8.40;99.90;;;;;;5051610;28;20170;-47
2022/11/25 03:52:37;;;;;;;10.43;2.70;;;8.50;99.90;;;;;;5051443;28;20250;-46
2022/11/25 03:55:04;;;;;;;6.30;2.38;;;8.60;99.90;;;;;;5051481;28;20203;-46
2022/11/25 03:57:30;;;;;;;11.25;2.88;;;8.70;99.90;;;;;;5051760;28;20174;-47
2022/11/25 03:59:56;;;;;;;7.07;2.22;;;8.70;99.90;;;;;;5051410;28;20682;-47
2022/11/25 04:02:21;;;;;;;11.30;3.03;;;8.70;99.90;;;;;;5051630;28;20170;-47
2022/11/25 04:04:47;;;;;;;15.30;3.22;;;8.70;99.90;;;;;;5051445;28;20175;-47
2022/11/25 04:07:12;;;;;;;5.82;2.33;;;8.80;99.90;;;;;;5051848;28;20174;-49
2022/11/25 04:09:38;;;;;;;14.65;2.65;;;8.90;99.90;;;;;;5051446;28;20248;-47
2022/11/25 04:14:48;;;;;;;10.35;2.53;;;8.80;99.90;;;;;;5051323;28;20213;-47
2022/11/25 04:17:13;;;;;;;10.15;2.35;;;8.90;99.90;;;;;;5051741;28;20167;-48
2022/11/25 04:19:39;;;;;;;7.93;2.90;;;8.90;99.90;;;;;;5051332;28;20247;-47
2022/11/25 04:22:04;;;;;;;12.25;3.78;;;8.90;99.90;;;;;;5051269;28;20189;-47
2022/11/25 04:24:30;;;;;;;10.77;2.60;;;8.90;99.90;;;;;;5037017;28;20220;-47
2022/11/25 04:26:55;;;;;;;11.88;2.33;;;8.90;99.90;;;;;;5055235;28;20170;-47
2022/11/25 04:29:21;;;;;;;11.55;2.85;;;8.90;99.90;;;;;;5055097;28;20261;-48
2022/11/25 04:31:47;;;;;;;8.02;2.50;;;8.90;99.90;;;;;;5037210;28;20254;-47
2022/11/25 04:34:12;;;;;;;13.77;2.50;;;8.80;99.90;;;;;;5055331;28;20225;-47
2022/11/25 04:36:38;;;;;;;11.48;3.15;;;8.80;99.90;;;;;;5055063;28;20187;-46
2022/11/25 04:39:03;;;;;;;11.85;3.35;;;8.70;99.90;;;;;;5054983;28;20174;-47
2022/11/25 04:41:29;;;;;;;10.63;2.80;;;8.80;99.90;;;;;;5055186;28;20179;-47
2022/11/25 04:43:55;;;;;;;11.18;3.45;;;8.70;99.90;;;;;;5055045;28;20501;-52
2022/11/25 04:46:23;;;;;;;10.80;2.60;;;8.80;99.90;;;;;;5054875;28;20174;-49
2022/11/25 04:48:49;;;;;;;11.02;2.80;;;8.70;99.90;;;;;;5055022;28;20174;-50
2022/11/25 04:51:14;;;;;;;9.20;3.03;;;8.80;99.90;;;;;;5055153;28;20166;-52
2022/11/25 04:53:40;;;;;;;14.20;4.13;;;8.80;99.90;;;;;;5054564;28;20285;-54
2022/11/25 04:56:06;;;;;;;9.38;2.58;;;8.80;99.90;;;;;;5054705;28;20643;-54
2022/11/25 05:01:16;;;;;;;10.80;3.72;;;8.70;99.90;;;;;;5054878;28;20249;-51
2022/11/25 05:03:41;;;;;;;9.95;3.70;;;8.80;99.90;;;;;;5054437;28;20627;-53
2022/11/25 05:06:08;;;;;;;12.20;3.30;;;8.80;99.90;;;;;;5054189;28;20166;-52
2022/11/25 05:08:34;;;;;;;16.98;3.13;;;8.70;99.90;;;;;;5054502;28;20190;-51
2022/11/25 05:11:00;;;;;;;10.23;3.95;;;8.70;99.90;;;;;;5054305;28;20201;-50
2022/11/25 05:13:26;;;;;;;7.43;2.63;;;8.80;99.90;;;;;;5054183;28;20194;-50
2022/11/25 05:15:52;;;;;;;10.02;2.83;;;8.70;99.90;;;;;;5054264;28;20182;-51
2022/11/25 05:18:18;;;;;;;13.00;2.70;;;8.70;99.90;;;;;;5054179;28;20171;-50
2022/11/25 05:20:43;;;;;;;10.48;3.53;;;8.70;99.90;;;;;;5054628;28;20166;-47
2022/11/25 05:23:09;;;;;;;16.98;4.22;;;8.70;99.90;;;;;;5054128;28;20615;-47
2022/11/25 05:25:35;;;;;;;9.07;2.80;;;8.60;99.90;;;;;;5053700;28;20171;-46
2022/11/25 05:28:01;;;;;;;9.68;2.97;;;8.70;99.90;;;;;;5053881;28;20213;-46
2022/11/25 05:30:26;;;;;;;13.05;3.08;;;8.60;99.90;;;;;;5054010;28;20178;-46
2022/11/25 05:32:52;;;;;;;9.18;3.08;;;8.60;99.90;;;;;;5054001;28;20217;-46
2022/11/25 05:35:18;;;;;;;6.05;3.40;;;8.60;99.90;;;;;;5053987;28;20289;-46
2022/11/25 05:37:43;;;;;;;13.45;4.32;;;8.60;99.90;;;;;;5054228;28;20155;-46
2022/11/25 05:40:10;;;;;;;10.25;4.15;;;8.60;99.90;;;;;;5036053;28;20178;-46
2022/11/25 05:42:35;;;;;;;11.77;4.03;;;8.70;99.90;;;;;;5053722;28;20177;-46
2022/11/25 05:45:01;;;;;;;15.32;3.25;;;8.60;99.90;;;;;;5053980;28;20534;-47
2022/11/25 05:47:27;;;;;;;15.50;3.90;;;8.60;99.90;;;;;;5053723;28;20167;-46
2022/11/25 05:49:53;;;;;;;10.55;3.60;;;8.70;99.90;;;;;;5053650;28;20588;-46
2022/11/25 05:52:18;;;;;;;14.68;3.10;;;8.60;99.90;;;;;;5053572;28;20170;-46
2022/11/25 05:54:44;;;;;;;8.32;3.35;;;8.70;99.90;;;;;;5053921;28;20209;-46
2022/11/25 05:57:09;;;;;;;9.00;3.58;;;8.70;99.90;;;;;;5053397;28;20166;-47
2022/11/25 05:59:35;;;;;;;11.75;3.97;;;8.70;99.90;;;;;;5053097;28;20221;-47
2022/11/25 06:02:01;;;;;;;6.75;2.90;;;8.70;99.90;;;;;;5053406;28;20668;-47
2022/11/25 06:04:26;;;;;;;11.95;3.67;;;8.70;99.90;;;;;;5053390;28;20195;-47
2022/11/25 06:06:52;;;;;;;13.48;3.42;;;8.60;99.90;;;;;;5053363;28;20171;-46
2022/11/25 06:09:17;;;;;;;10.23;3.75;;;8.60;99.90;;;;;;5035320;28;20186;-46
2022/11/25 06:11:43;;;;;;;11.68;3.20;;;8.60;99.90;;;;;;5053717;28;20163;-47
2022/11/25 06:14:09;;;;;;;9.90;4.55;;;8.70;99.90;;;;;;5053079;28;20207;-47
2022/11/25 06:16:34;;;;;;;17.85;5.32;;;8.70;99.90;;;;;;5053222;28;20182;-46
2022/11/25 06:19:05;;;;;;;17.73;5.75;;;8.80;99.90;;;;;;5053089;28;20167;-46
2022/11/25 06:21:31;;;;;;;19.90;5.97;;;8.80;99.90;;;;;;5053243;28;20228;-47
2022/11/25 06:23:57;;;;;;;18.15;7.53;;;8.80;99.90;;;;;;5052894;28;20174;-46
2022/11/25 06:26:23;;;;;;;17.38;6.97;;;8.70;99.90;;;;;;5052751;28;20206;-47
2022/11/25 06:28:52;;;;;;;17.52;6.95;;;8.70;99.90;;;;;;5052762;28;20171;-46
2022/11/25 06:31:20;;;;;;;17.75;6.95;;;8.80;99.90;;;;;;5052886;28;20158;-46
2022/11/25 06:33:47;;;;;;;15.55;5.07;;;8.70;99.90;;;;;;5063322;28;20277;-46
2022/11/25 06:36:16;;;;;;;18.05;5.55;;;8.70;99.90;;;;;;5071410;28;20257;-49
2022/11/25 06:38:50;;;;;;;16.02;5.65;;;8.70;99.90;;;;;;5054268;28;20195;-47
2022/11/25 06:41:17;;;;;;;14.82;6.40;;;8.70;99.90;;;;;;5051248;28;20166;-45
2022/11/25 06:43:43;;;;;;;21.13;6.43;;;8.70;99.90;;;;;;5051273;28;20163;-49
2022/11/25 06:46:11;;;;;;;20.52;7.03;;;8.70;99.90;;;;;;5050231;28;20166;-45
2022/11/25 06:48:37;;;;;;;12.02;4.53;;;8.70;99.90;;;;;;5050814;28;20185;-47
2022/11/25 06:51:07;;;;;;;10.25;4.18;;;8.70;99.90;;;;;;5050662;28;20623;-46
2022/11/25 06:53:34;;;;;;;8.10;3.97;;;8.60;99.90;;;;;;5050659;28;20170;-45
2022/11/25 06:56:09;;;;;;;12.80;3.97;;;8.60;99.90;;;;;;5050679;28;20189;-46
2022/11/25 06:58:36;;;;;;;11.95;3.72;;;8.50;99.90;;;;;;5050699;28;20174;-46
2022/11/25 07:01:06;;;;;;;9.45;3.95;;;8.50;99.90;;;;;;5050360;28;20222;-48
2022/11/25 07:03:33;;;;;;;14.68;4.68;;;8.60;99.90;;;;;;5050351;28;20166;-45
2022/11/25 07:05:59;;;;;;;10.93;4.35;;;8.50;99.90;;;;;;5050673;28;20167;-45
2022/11/25 07:08:26;;;;;;;9.80;4.55;;;8.40;99.90;;;;;;5050436;28;20181;-46
2022/11/25 07:10:52;;;;;;;13.68;6.07;;;8.50;99.90;;;;;;5050668;28;20166;-46
2022/11/25 07:13:18;;;;;;;19.35;6.65;;;8.50;99.90;;;;;;5050251;28;20174;-45
2022/11/25 07:15:43;;;;;;;18.65;5.50;;;8.60;99.90;;;;;;5050373;28;20217;-46
2022/11/25 07:18:09;;;;;;;12.10;5.78;;;8.60;99.90;;;;;;5050169;28;20171;-47
2022/11/25 07:20:35;;;;;;;17.38;5.38;;;8.50;99.90;;;;;;5050052;28;20658;-45
2022/11/25 07:23:00;;;;;;;16.67;5.80;;;8.60;99.90;;;;;;5050165;28;20166;-46
2022/11/25 07:25:26;;;;;;;18.73;7.38;;;8.60;99.90;;;;;;5049973;28;20190;-45
2022/11/25 07:27:51;;;;;;;21.80;6.28;;;8.50;99.90;;;;;;5050077;28;20527;-45
2022/11/25 07:30:17;;;;;;;17.95;5.72;;;8.50;99.90;;;;;;5050319;28;20223;-45
2022/11/25 07:32:43;;;;;;;21.77;5.95;;;8.40;99.90;;;;;;5032722;28;20626;-46
2022/11/25 07:35:08;;;;;;;22.63;6.32;;;8.40;99.90;;;;;;5032395;28;20210;-45
2022/11/25 07:37:34;;;;;;;18.30;5.68;;;8.40;99.90;;;;;;5049859;28;20167;-45
2022/11/25 07:39:59;;;;;;;13.27;3.97;;;8.40;99.90;;;;;;5032088;28;20179;-45
2022/11/25 07:42:25;;;;;;;15.23;3.15;;;8.40;99.90;;;;;;5049954;28;20162;-45
2022/11/25 07:44:51;;;;;;;12.25;3.90;;;8.50;99.90;;;;;;5049941;28;20535;-45
2022/11/25 07:47:17;;;;;;;17.83;4.60;;;8.40;99.90;;;;;;5049748;28;20220;-45
2022/11/25 07:49:42;;;;;;;9.65;2.60;;;8.40;99.90;;;;;;5050201;28;20224;-45
2022/11/25 07:52:08;;;;;;;13.00;3.05;;;8.50;99.90;;;;;;5050051;28;20253;-45
2022/11/25 07:54:34;;;;;;;9.25;2.58;;;8.40;99.90;;;;;;5049715;28;20558;-45
2022/11/25 07:56:59;;;;;;;8.30;2.78;;;8.50;99.90;;;;;;5049912;28;20202;-45
2022/11/25 07:59:25;;;;;;;6.70;2.38;;;8.50;99.90;;;;;;5073839;28;20798;-45
2022/11/25 08:01:52;;;;;;;7.22;1.98;;;8.60;99.90;;;;;;5073965;28;20172;-46
2022/11/25 08:04:18;;;;;;;8.10;2.28;;;8.60;99.90;;;;;;5074144;28;20205;-50
2022/11/25 08:06:45;;;;;;;4.80;2.13;;;8.60;99.90;;;;;;5074072;28;20205;-46
2022/11/25 08:09:13;;;;;;;7.38;2.70;;;8.60;99.90;;;;;;5073661;28;20222;-48
2022/11/25 08:11:40;;;;;;;7.47;1.98;;;8.60;99.90;;;;;;5073614;28;20174;-45
2022/11/25 08:14:05;;;;;;;5.22;2.85;;;8.70;99.90;;;;;;5072278;28;20200;-46
2022/11/25 08:16:32;;;;;;;5.45;1.80;;;8.80;99.90;;;;;;5073697;28;20524;-47
2022/11/25 08:19:03;;;;;;;9.00;2.63;;;8.80;99.90;;;;;;5073799;28;20251;-46
2022/11/25 08:21:29;;;;;;;2.83;1.90;;;8.90;99.90;;;;;;5072082;28;20162;-45
2022/11/25 08:23:55;;;;;;;7.88;2.10;;;9.60;99.90;;;;;;5073535;28;20222;-46
2022/11/25 08:26:22;;;;;;;6.25;1.80;;;8.90;99.90;;;;;;5073371;28;20208;-47
2022/11/25 08:28:48;;;;;;;7.13;2.30;;;9.00;99.90;;;;;;5055439;28;20177;-45
2022/11/25 08:31:23;;;;;;;6.30;1.75;;;9.00;99.90;;;;;;5073856;28;20174;-46
2022/11/25 08:33:49;;;;;;;9.38;2.53;;;9.10;99.90;;;;;;5073184;28;20558;-45
2022/11/25 08:36:16;;;;;;;10.25;2.00;;;9.10;99.90;;;;;;5073978;28;20166;-46
2022/11/25 08:38:43;;;;;;;10.50;2.22;;;9.10;99.90;;;;;;5073535;28;20600;-46
2022/11/25 08:41:20;;;;;;;11.70;2.40;;;9.20;99.90;;;;;;5073467;28;20235;-47
2022/11/25 08:43:48;;;;;;;7.28;2.20;;;9.20;99.90;;;;;;5069848;28;20201;-47
2022/11/25 08:46:17;;;;;;;8.98;2.10;;;9.20;99.90;;;;;;5073812;28;20169;-46
2022/11/25 08:48:43;;;;;;;9.55;2.17;;;10.00;99.90;;;;;;5073343;28;20165;-47
2022/11/25 08:51:11;;;;;;;6.82;2.03;;;9.20;99.90;;;;;;5072963;28;20166;-45
2022/11/25 08:53:38;;;;;;;9.48;2.20;;;9.20;99.90;;;;;;5072740;28;20162;-46
2022/11/25 08:56:05;;;;;;;8.55;2.53;;;9.10;99.90;;;;;;5055004;28;20212;-45
2022/11/25 08:58:31;;;;;;;5.25;2.17;;;9.10;99.90;;;;;;5073079;28;20178;-46
2022/11/25 09:00:56;;;;;;;7.60;2.60;;;9.10;99.90;;;;;;5054872;28;20630;-47
2022/11/25 09:03:22;;;;;;;7.82;2.20;;;9.10;99.90;;;;;;5072836;28;20167;-47
2022/11/25 09:05:48;;;;;;;11.63;2.55;;;9.00;99.90;;;;;;5072550;28;20173;-45
2022/11/25 09:08:14;;;;;;;8.45;2.50;;;9.00;99.90;;;;;;5072672;28;20178;-45
2022/11/25 09:10:40;;;;;;;7.72;2.90;;;11.60;99.90;;;;;;5072755;28;20165;-45
2022/11/25 09:13:06;;;;;;;10.20;2.17;;;9.00;99.90;;;;;;5072782;28;20178;-46
2022/11/25 09:15:32;;;;;;;7.25;2.35;;;9.00;99.90;;;;;;5072549;28;20197;-46
2022/11/25 09:18:06;;;;;;;12.43;2.83;;;9.00;99.90;;;;;;5072467;28;20697;-46
2022/11/25 09:20:32;;;;;;;7.53;2.83;;;9.00;99.90;;;;;;5072683;28;20170;-47
2022/11/25 09:23:00;;;;;;;6.57;2.40;;;9.10;99.90;;;;;;5072248;28;20229;-48
2022/11/25 09:25:26;;;;;;;13.73;3.15;;;9.10;99.90;;;;;;5072515;28;20221;-46
2022/11/25 09:27:52;;;;;;;9.98;2.85;;;9.10;99.90;;;;;;5072102;28;20162;-46
2022/11/25 09:30:17;;;;;;;9.32;2.58;;;9.10;99.90;;;;;;5072146;28;20653;-45
2022/11/25 09:32:43;;;;;;;10.10;3.10;;;9.20;99.90;;;;;;5072843;28;20292;-45
2022/11/25 09:35:09;;;;;;;11.98;2.88;;;9.10;99.90;;;;;;5072161;28;20588;-45
2022/11/25 09:37:35;;;;;;;10.73;3.08;;;9.10;99.90;;;;;;5071837;28;20170;-45
2022/11/25 09:40:00;;;;;;;10.88;2.58;;;9.10;99.90;;;;;;5072814;28;20215;-45
2022/11/25 09:49:18;;;;;;;13.05;2.67;;;9.20;99.90;;;;;;5046275;28;20243;-45
2022/11/25 09:51:56;;;;;;;5.57;2.30;;;9.30;99.90;;;;;;5074022;28;20162;-45
2022/11/25 09:54:36;;;;;;;10.68;2.47;;;9.30;99.90;;;;;;5073496;28;20284;-45
2022/11/25 09:57:08;;;;;;;13.77;3.33;;;9.30;99.90;;;;;;5073745;28;20170;-45
2022/11/25 09:59:38;;;;;;;9.05;2.33;;;9.30;99.90;;;;;;5073407;28;20637;-45
2022/11/25 10:02:19;;;;;;;10.18;2.55;;;9.40;99.90;;;;;;5073415;28;20169;-47
2022/11/25 10:04:53;;;;;;;8.27;2.65;;;9.40;99.90;;;;;;5073874;28;20170;-46
2022/11/25 10:07:42;;;;;;;12.00;2.38;;;9.50;99.90;;;;;;5073358;28;20162;-45
2022/11/25 10:10:28;;;;;;;6.55;2.42;;;9.50;99.90;;;;;;5073245;28;20190;-45
2022/11/25 10:12:56;;;;;;;8.70;2.20;;;9.50;99.90;;;;;;5073199;28;20160;-45
2022/11/25 10:15:45;;;;;;;10.90;2.83;;;9.50;99.90;;;;;;5073114;28;20753;-46
2022/11/25 10:18:28;;;;;;;14.05;2.40;;;9.60;99.90;;;;;;5073233;28;20245;-46
2022/11/25 10:20:54;;;;;;;8.52;2.80;;;9.60;99.90;;;;;;5072253;28;20162;-45
2022/11/25 10:23:37;;;;;;;10.50;2.63;;;9.70;99.90;;;;;;5073239;28;20587;-45
2022/11/25 10:26:15;;;;;;;10.52;2.50;;;9.80;99.90;;;;;;5072918;28;20170;-45
2022/11/25 10:28:54;;;;;;;10.65;2.25;;;9.80;99.90;;;;;;5073215;28;20166;-46
2022/11/25 10:31:33;;;;;;;7.45;2.20;;;9.90;99.90;;;;;;5072874;28;20189;-45
2022/11/25 10:34:00;;;;;;;10.45;1.92;;;9.90;99.90;;;;;;5072743;28;20225;-45
2022/11/25 10:36:34;;;;;;;9.55;2.35;;;9.90;99.90;;;;;;5072716;28;20185;-46
2022/11/25 10:39:23;;;;;;;16.40;3.25;;;9.90;99.90;;;;;;5072458;28;20222;-46
2022/11/25 10:42:00;;;;;;;6.15;2.15;;;10.00;99.90;;;;;;5072678;28;20162;-45
2022/11/25 10:44:29;;;;;;;9.25;2.45;;;10.00;99.90;;;;;;5072478;28;20174;-46
2022/11/25 10:47:05;;;;;;;12.38;2.88;;;10.00;99.90;;;;;;5072753;28;20193;-45
2022/11/25 10:49:48;;;;;;;8.68;2.63;;;10.00;99.90;;;;;;5072483;28;20172;-45
2022/11/25 10:52:18;;;;;;;11.80;2.13;;;10.00;99.90;;;;;;5072886;28;20158;-45
2022/11/25 10:55:08;;;;;;;10.20;2.28;;;10.10;99.90;;;;;;5072679;28;20248;-45
2022/11/25 10:57:34;;;;;;;10.68;2.90;;;10.10;99.90;;;;;;5072355;28;20177;-45
2022/11/25 11:00:00;;;;;;;9.32;2.28;;;10.20;99.90;;;;;;5072188;28;20210;-45
2022/11/25 11:02:34;;;;;;;8.23;2.78;;;10.20;99.90;;;;;;5072255;28;20225;-45
2022/11/25 11:05:08;;;;;;;12.93;2.70;;;10.30;99.90;;;;;;5072302;28;20165;-45
2022/11/25 11:07:38;;;;;;;9.52;2.97;;;10.40;99.90;;;;;;5072164;28;20652;-46
2022/11/25 11:10:25;;;;;;;14.07;2.60;;;10.50;99.90;;;;;;5072067;28;20166;-45
2022/11/25 11:12:58;;;;;;;7.72;2.72;;;10.50;99.90;;;;;;5072070;28;20311;-45
2022/11/25 11:15:28;;;;;;;9.05;2.85;;;10.50;99.90;;;;;;5072345;28;20232;-45
2022/11/25 11:17:56;;;;;;;9.05;2.70;;;10.50;99.90;;;;;;5071837;28;20162;-45
2022/11/25 11:20:31;;;;;;;14.65;3.40;;;10.70;99.90;;;;;;5072230;28;20261;-45
2022/11/25 11:23:13;;;;;;;11.63;3.33;;;10.60;99.90;;;;;;5072022;28;20170;-46
2022/11/25 11:25:42;;;;;;;8.90;3.03;;;10.60;99.90;;;;;;5071961;28;20172;-46
2022/11/25 11:28:26;;;;;;;10.77;2.60;;;10.60;99.90;;;;;;5071839;28;20185;-46
2022/11/25 11:31:03;;;;;;;12.20;3.67;;;10.60;99.90;;;;;;5071834;28;20677;-45
2022/11/25 11:34:06;;;;;;;31.92;3.30;;;10.60;99.90;;;;;;5071703;28;20645;-46
2022/11/25 11:36:43;;;;;;;11.38;3.10;;;10.70;99.90;;;;;;5071664;28;20177;-46
2022/11/25 11:39:18;;;;;;;12.73;3.60;;;10.90;99.90;;;;;;5071772;28;20196;-46
2022/11/25 11:41:58;;;;;;;18.52;3.38;;;11.00;99.90;;;;;;5072069;28;20158;-46
2022/11/25 11:44:36;;;;;;;10.25;3.50;;;11.00;99.90;;;;;;5071525;28;20165;-46
2022/11/25 11:47:04;;;;;;;15.27;2.60;;;11.00;99.90;;;;;;5071560;28;20162;-47
2022/11/25 11:49:57;;;;;;;11.27;2.60;;;11.00;99.90;;;;;;5071464;28;20170;-47
2022/11/25 11:52:46;;;;;;;10.90;3.10;;;10.90;99.90;;;;;;5071632;28;20170;-46
2022/11/25 11:55:25;;;;;;;18.23;3.85;;;10.90;99.90;;;;;;5071645;28;20206;-47
2022/11/25 11:58:21;;;;;;;14.77;3.45;;;11.00;99.90;;;;;;5071294;28;20162;-47
2022/11/25 12:01:10;;;;;;;13.82;3.50;;;11.00;99.90;;;;;;5071242;28;20210;-46
2022/11/25 12:03:50;;;;;;;20.70;4.80;;;10.90;99.90;;;;;;5071368;28;20687;-47
2022/11/25 12:06:19;;;;;;;16.70;3.63;;;10.80;99.90;;;;;;5071695;28;20173;-45
2022/11/25 12:08:49;;;;;;;12.30;3.13;;;10.90;99.90;;;;;;5071908;28;20162;-47
2022/11/25 12:11:24;;;;;;;6.50;2.45;;;11.00;99.90;;;;;;5071321;28;20158;-46
2022/11/25 12:14:10;;;;;;;17.42;3.22;;;11.00;99.90;;;;;;5071484;28;20192;-46
2022/11/25 12:16:44;;;;;;;16.25;3.30;;;11.00;99.90;;;;;;5071320;28;20162;-46
2022/11/25 12:19:49;;;;;;;13.30;3.85;;;11.10;99.90;;;;;;5071632;28;20208;-46
2022/11/25 12:22:24;;;;;;;11.57;2.92;;;11.20;99.90;;;;;;5071905;28;20311;-46
2022/11/25 12:25:07;;;;;;;15.73;2.97;;;11.10;99.90;;;;;;5071395;28;20169;-46
2022/11/25 12:27:45;;;;;;;9.23;3.25;;;11.10;99.90;;;;;;5071165;28;20162;-46
2022/11/25 12:30:18;;;;;;;19.48;3.60;;;11.00;99.90;;;;;;5071416;28;20158;-46
2022/11/25 12:32:52;;;;;;;11.75;3.00;;;11.00;99.90;;;;;;5071408;28;20172;-46
2022/11/25 12:35:47;;;;;;;9.02;2.65;;;11.10;99.90;;;;;;5070927;28;20367;-46
2022/11/25 12:38:24;;;;;;;9.80;3.00;;;11.20;99.90;;;;;;5070984;28;20197;-47
2022/11/25 12:40:59;;;;;;;11.35;2.95;;;11.30;99.90;;;;;;5071003;28;20558;-46
2022/11/25 12:43:24;;;;;;;10.30;2.63;;;11.30;99.90;;;;;;5071060;28;20170;-46
2022/11/25 12:46:02;;;;;;;11.30;2.90;;;11.30;99.90;;;;;;5074470;28;20585;-46
2022/11/25 12:48:27;;;;;;;11.32;2.72;;;11.30;99.90;;;;;;5074752;28;20177;-46
2022/11/25 12:51:09;;;;;;;10.05;2.50;;;11.40;99.90;;;;;;5074689;28;20170;-45
2022/11/25 12:53:49;;;;;;;8.95;2.83;;;11.30;99.90;;;;;;5074518;28;20174;-47
2022/11/25 12:56:23;;;;;;;9.30;2.25;;;9.90;99.90;;;;;;5056291;28;20178;-45
2022/11/25 12:59:22;;;;;;;8.88;2.78;;;11.30;99.90;;;;;;5040572;28;20253;-46
2022/11/25 13:02:09;;;;;;;14.98;2.80;;;11.30;99.90;;;;;;5056831;28;20587;-46
2022/11/25 13:05:00;;;;;;;9.93;3.50;;;11.30;99.90;;;;;;5073991;28;20165;-46
2022/11/25 13:07:47;;;;;;;9.00;2.22;;;11.30;99.90;;;;;;5074423;28;20172;-46
2022/11/25 13:10:38;;;;;;;9.95;3.22;;;11.30;99.90;;;;;;5074234;28;20633;-47
2022/11/25 13:13:16;;;;;;;10.50;2.53;;;11.30;99.90;;;;;;5074483;28;20162;-46
2022/11/25 13:15:45;;;;;;;11.57;3.50;;;11.30;99.90;;;;;;5074535;28;20206;-47